Time;durP1;ratioP1;P1;durP2;ratioP2;P2;SDS_P1;SDS_P2;PMS_P1;PMS_P2;Temp;Humidity;BMP_temperature;BMP_pressure;BME280_temperature;BME280_humidity;BME280_pressure;Samples;Min_cycle;Max_cycle;Signal;HPM_P1;HPM_P2
2022/08/29 00:01:55;;;;;;;0.50;0.50;;;17.40;66.90;;;;;;5040441;28;20064;-66
2022/08/29 00:04:21;;;;;;;2.38;0.75;;;17.30;66.80;;;;;;5015114;28;20501;-66
2022/08/29 00:06:46;;;;;;;1.55;0.70;;;17.30;66.80;;;;;;5014535;28;20361;-66
2022/08/29 00:09:12;;;;;;;0.40;0.40;;;17.30;66.90;;;;;;5032800;28;20075;-67
2022/08/29 00:11:38;;;;;;;0.82;0.82;;;17.20;66.90;;;;;;5015243;28;20108;-66
2022/08/29 00:14:04;;;;;;;1.08;0.93;;;17.20;67.00;;;;;;5039593;28;20044;-67
2022/08/29 00:16:29;;;;;;;1.20;0.95;;;17.10;66.90;;;;;;5018424;28;20036;-66
2022/08/29 00:18:55;;;;;;;0.55;0.50;;;17.10;67.00;;;;;;5031861;28;20037;-66
2022/08/29 00:21:21;;;;;;;2.17;0.60;;;17.10;67.00;;;;;;5042709;28;20063;-66
2022/08/29 00:23:47;;;;;;;0.82;0.40;;;17.00;67.10;;;;;;5034253;28;20037;-67
2022/08/29 00:26:13;;;;;;;0.50;0.50;;;17.00;67.10;;;;;;5052749;28;20044;-67
2022/08/29 00:28:38;;;;;;;1.95;0.90;;;17.00;67.20;;;;;;5053514;28;20040;-67
2022/08/29 00:31:04;;;;;;;0.88;0.50;;;16.90;67.30;;;;;;5052345;28;20033;-70
2022/08/29 00:33:30;;;;;;;1.38;0.65;;;16.90;67.30;;;;;;5044203;28;20032;-71
2022/08/29 00:35:56;;;;;;;0.65;0.43;;;16.90;67.30;;;;;;5054724;28;20025;-71
2022/08/29 00:38:22;;;;;;;0.75;0.52;;;16.90;67.20;;;;;;5051725;28;20021;-70
2022/08/29 00:40:51;;;;;;;0.60;0.60;;;16.90;67.30;;;;;;5052084;28;20060;-70
2022/08/29 00:43:20;;;;;;;1.35;0.85;;;16.90;67.30;;;;;;5051546;28;20025;-70
2022/08/29 00:46:10;;;;;;;0.65;0.65;;;16.80;67.30;;;;;;5033990;28;20033;-71
2022/08/29 00:48:38;;;;;;;1.40;0.40;;;16.80;67.40;;;;;;5047219;28;20040;-70
2022/08/29 00:51:13;;;;;;;0.82;0.82;;;16.80;67.30;;;;;;5052058;28;20131;-70
2022/08/29 00:53:43;;;;;;;2.60;0.98;;;16.80;67.30;;;;;;5050993;28;20075;-70
2022/08/29 00:56:12;;;;;;;3.65;0.90;;;16.80;67.50;;;;;;5051836;28;20272;-71
2022/08/29 00:58:46;;;;;;;0.77;0.60;;;16.70;67.50;;;;;;5043909;28;20108;-70
2022/08/29 01:01:13;;;;;;;1.83;0.77;;;16.70;67.50;;;;;;5051744;28;20032;-70
2022/08/29 01:03:40;;;;;;;0.60;0.52;;;16.70;67.50;;;;;;5063274;28;20092;-70
2022/08/29 01:06:06;;;;;;;0.85;0.68;;;16.60;67.50;;;;;;5051993;28;20069;-70
2022/08/29 01:08:32;;;;;;;0.98;0.77;;;16.60;67.60;;;;;;5062792;28;20037;-70
2022/08/29 01:13:45;;;;;;;0.60;0.60;;;16.60;67.70;;;;;;5051685;28;20032;-70
2022/08/29 01:16:13;;;;;;;1.80;0.88;;;16.60;67.70;;;;;;5051429;28;20431;-70
2022/08/29 01:18:42;;;;;;;1.45;0.52;;;16.60;67.80;;;;;;5050889;28;20025;-70
2022/08/29 01:21:14;;;;;;;2.50;0.95;;;16.50;67.70;;;;;;5032304;28;20046;-70
2022/08/29 01:23:53;;;;;;;0.82;0.60;;;16.50;67.70;;;;;;5011232;28;20358;-70
2022/08/29 01:26:21;;;;;;;0.45;0.40;;;16.50;67.90;;;;;;5011683;28;20030;-70
2022/08/29 01:28:50;;;;;;;0.40;0.40;;;16.40;68.00;;;;;;5012497;28;20096;-70
2022/08/29 01:31:22;;;;;;;0.40;0.40;;;16.40;67.90;;;;;;5022821;28;20025;-70
2022/08/29 01:33:53;;;;;;;0.70;0.60;;;16.40;67.90;;;;;;5011004;28;20030;-70
2022/08/29 01:36:21;;;;;;;1.98;1.05;;;16.40;68.00;;;;;;5024145;28;20034;-70
2022/08/29 01:38:48;;;;;;;0.55;0.52;;;16.40;68.10;;;;;;5010871;28;20033;-70
2022/08/29 01:41:15;;;;;;;0.60;0.60;;;16.40;68.10;;;;;;5011165;28;20132;-70
2022/08/29 01:43:45;;;;;;;1.92;0.80;;;16.30;68.00;;;;;;5022614;28;20492;-70
2022/08/29 01:46:13;;;;;;;0.98;0.57;;;16.40;68.10;;;;;;5011528;28;20026;-70
2022/08/29 01:48:42;;;;;;;1.35;1.15;;;16.30;68.20;;;;;;4993115;28;20033;-70
2022/08/29 01:51:08;;;;;;;1.40;0.70;;;16.30;68.80;;;;;;4993471;28;20022;-70
2022/08/29 01:53:34;;;;;;;0.68;0.68;;;16.30;68.40;;;;;;5010103;28;20120;-70
2022/08/29 01:56:12;;;;;;;0.65;0.65;;;16.30;68.50;;;;;;5010818;28;20116;-70
2022/08/29 01:58:37;;;;;;;1.02;0.77;;;16.30;68.50;;;;;;5011008;28;20470;-71
2022/08/29 02:01:04;;;;;;;0.70;0.70;;;16.20;68.60;;;;;;4992386;28;20041;-70
2022/08/29 02:03:30;;;;;;;1.05;0.50;;;16.20;68.60;;;;;;5010169;28;20037;-70
2022/08/29 02:06:00;;;;;;;2.13;0.95;;;16.20;68.50;;;;;;5011183;28;20666;-70
2022/08/29 02:08:26;;;;;;;0.80;0.50;;;16.20;68.40;;;;;;5010123;28;20021;-70
2022/08/29 02:10:52;;;;;;;0.95;0.70;;;16.20;68.60;;;;;;4976875;28;20048;-70
2022/08/29 02:13:18;;;;;;;1.30;0.55;;;16.20;68.60;;;;;;5015627;28;20038;-70
2022/08/29 02:15:43;;;;;;;1.70;0.68;;;16.10;68.50;;;;;;4992830;28;20042;-70
2022/08/29 02:18:09;;;;;;;0.60;0.60;;;16.10;68.50;;;;;;4992823;28;20037;-70
2022/08/29 02:20:35;;;;;;;1.05;0.50;;;16.10;68.50;;;;;;4996499;28;20042;-70
2022/08/29 02:23:01;;;;;;;0.75;0.68;;;16.00;68.50;;;;;;5029868;28;20483;-70
2022/08/29 02:25:42;;;;;;;0.70;0.70;;;16.10;68.60;;;;;;5012328;28;20540;-70
2022/08/29 02:28:14;;;;;;;0.70;0.60;;;16.10;68.70;;;;;;5040068;28;20037;-70
2022/08/29 02:30:42;;;;;;;0.90;0.68;;;16.00;68.60;;;;;;5014617;28;20443;-70
2022/08/29 02:33:08;;;;;;;1.33;0.68;;;16.00;68.70;;;;;;5012072;28;20473;-71
2022/08/29 02:35:35;;;;;;;0.63;0.63;;;16.00;68.70;;;;;;5032442;28;20039;-70
2022/08/29 02:38:02;;;;;;;0.98;0.90;;;16.00;68.70;;;;;;5028335;28;20029;-70
2022/08/29 02:40:28;;;;;;;1.90;0.80;;;15.90;68.70;;;;;;5029932;28;20385;-70
2022/08/29 02:42:54;;;;;;;2.53;1.13;;;15.90;68.80;;;;;;5029711;28;20033;-70
2022/08/29 02:45:21;;;;;;;1.02;0.57;;;15.90;68.80;;;;;;5029969;28;20026;-71
2022/08/29 02:47:47;;;;;;;2.05;0.93;;;15.80;68.70;;;;;;5026705;28;20025;-70
2022/08/29 02:50:13;;;;;;;0.55;0.52;;;15.80;69.40;;;;;;5029747;28;20067;-70
2022/08/29 02:52:41;;;;;;;0.63;0.63;;;15.80;68.80;;;;;;5029425;28;20029;-70
2022/08/29 02:55:10;;;;;;;1.00;0.70;;;15.70;68.80;;;;;;5042109;28;20029;-70
2022/08/29 02:57:35;;;;;;;1.30;0.63;;;15.70;68.80;;;;;;5012337;28;20315;-70
2022/08/29 03:00:02;;;;;;;0.63;0.50;;;15.70;68.90;;;;;;5021296;28;20120;-70
2022/08/29 03:02:28;;;;;;;0.55;0.55;;;15.70;68.90;;;;;;5029181;28;20021;-70
2022/08/29 03:04:54;;;;;;;0.82;0.80;;;15.60;68.90;;;;;;5012137;28;20036;-70
2022/08/29 03:07:19;;;;;;;1.83;0.95;;;15.60;69.00;;;;;;5011389;28;20469;-70
2022/08/29 03:09:45;;;;;;;3.28;0.55;;;15.60;69.10;;;;;;5029721;28;20036;-70
2022/08/29 03:12:11;;;;;;;1.98;0.80;;;15.60;69.20;;;;;;5012548;28;20033;-70
2022/08/29 03:14:36;;;;;;;2.50;0.90;;;15.50;69.10;;;;;;5038512;28;20396;-70
2022/08/29 03:17:02;;;;;;;0.88;0.88;;;15.50;69.20;;;;;;5028866;28;20433;-70
2022/08/29 03:19:28;;;;;;;0.70;0.68;;;15.60;69.20;;;;;;5029421;28;20033;-70
2022/08/29 03:21:54;;;;;;;2.15;0.70;;;15.50;69.10;;;;;;5010957;28;20120;-70
2022/08/29 03:24:19;;;;;;;0.80;0.80;;;15.50;69.00;;;;;;5011742;28;20068;-70
2022/08/29 03:26:45;;;;;;;3.15;0.88;;;15.50;69.00;;;;;;5011947;28;20034;-70
2022/08/29 03:29:11;;;;;;;1.85;1.15;;;15.50;69.00;;;;;;5011998;28;20068;-70
2022/08/29 03:31:36;;;;;;;1.77;1.00;;;15.50;69.00;;;;;;5029346;28;20033;-70
2022/08/29 03:34:03;;;;;;;1.20;1.10;;;15.50;69.00;;;;;;5005859;28;20413;-70
2022/08/29 03:36:29;;;;;;;1.35;0.60;;;15.50;69.10;;;;;;5027915;28;20044;-70
2022/08/29 03:38:55;;;;;;;1.15;1.02;;;15.50;69.10;;;;;;5010336;28;20022;-70
2022/08/29 03:41:28;;;;;;;1.30;1.10;;;15.50;69.00;;;;;;5011160;28;20032;-70
2022/08/29 03:43:55;;;;;;;2.50;1.00;;;15.50;69.00;;;;;;5029430;28;20029;-70
2022/08/29 03:46:21;;;;;;;2.55;0.90;;;15.50;69.30;;;;;;5032727;28;20477;-70
2022/08/29 03:48:48;;;;;;;3.47;1.15;;;15.50;69.50;;;;;;5028686;28;20057;-70
2022/08/29 03:51:14;;;;;;;2.20;0.95;;;15.50;69.60;;;;;;5022048;28;20574;-70
2022/08/29 03:53:40;;;;;;;2.20;1.13;;;15.50;69.70;;;;;;5017366;28;20484;-70
2022/08/29 03:56:07;;;;;;;3.40;1.58;;;15.60;69.90;;;;;;5029244;28;20022;-70
2022/08/29 03:58:33;;;;;;;1.73;0.98;;;15.60;69.90;;;;;;5028750;28;20096;-70
2022/08/29 04:00:59;;;;;;;1.00;0.77;;;15.60;69.90;;;;;;5028972;28;20060;-70
2022/08/29 04:03:26;;;;;;;1.98;0.95;;;15.70;69.80;;;;;;5010505;28;20065;-70
2022/08/29 04:05:52;;;;;;;2.08;0.95;;;15.70;69.60;;;;;;4995264;28;20077;-70
2022/08/29 04:08:18;;;;;;;1.58;1.15;;;15.80;69.60;;;;;;5010527;28;20022;-70
2022/08/29 04:10:44;;;;;;;2.97;1.48;;;15.90;69.70;;;;;;5011338;28;20076;-70
2022/08/29 04:13:11;;;;;;;1.60;1.20;;;15.90;69.60;;;;;;5028902;28;20049;-70
2022/08/29 04:15:39;;;;;;;2.08;1.08;;;16.00;69.60;;;;;;5026601;28;20486;-70
2022/08/29 04:18:07;;;;;;;1.73;1.08;;;16.00;69.80;;;;;;5028640;28;20033;-70
2022/08/29 04:20:36;;;;;;;1.20;1.10;;;16.00;69.70;;;;;;5012231;28;20066;-70
2022/08/29 04:23:02;;;;;;;1.63;1.05;;;16.10;69.90;;;;;;5028718;28;20022;-70
2022/08/29 04:25:35;;;;;;;2.78;1.38;;;16.10;69.80;;;;;;5032467;28;20030;-70
2022/08/29 04:28:03;;;;;;;1.45;0.90;;;16.10;69.90;;;;;;5030678;28;20428;-70
2022/08/29 04:30:29;;;;;;;3.65;1.65;;;16.20;70.00;;;;;;5013837;28;20025;-70
2022/08/29 04:32:55;;;;;;;6.35;1.67;;;16.20;69.90;;;;;;5031318;28;20101;-70
2022/08/29 04:35:22;;;;;;;1.10;0.77;;;16.20;70.00;;;;;;5032095;28;20112;-70
2022/08/29 04:37:48;;;;;;;3.80;1.52;;;16.20;69.90;;;;;;5030951;28;20022;-70
2022/08/29 04:40:16;;;;;;;1.20;0.98;;;16.30;69.90;;;;;;5032197;28;20498;-70
2022/08/29 04:42:43;;;;;;;4.40;1.17;;;16.30;69.80;;;;;;5031773;28;20021;-70
2022/08/29 04:45:11;;;;;;;3.50;1.63;;;16.30;69.80;;;;;;5035046;28;20453;-70
2022/08/29 04:47:38;;;;;;;2.45;1.40;;;16.40;69.80;;;;;;5031842;28;20025;-70
2022/08/29 04:50:05;;;;;;;2.38;1.20;;;16.40;69.80;;;;;;5031769;28;20442;-70
2022/08/29 04:52:31;;;;;;;2.30;1.02;;;16.40;69.80;;;;;;5031292;28;20033;-66
2022/08/29 04:54:58;;;;;;;2.53;1.70;;;16.40;69.80;;;;;;4999439;28;20116;-66
2022/08/29 04:57:24;;;;;;;5.93;1.77;;;16.40;69.70;;;;;;5039640;28;20033;-66
2022/08/29 04:59:54;;;;;;;2.38;1.63;;;16.40;69.70;;;;;;5033173;28;20044;-66
2022/08/29 05:02:21;;;;;;;1.08;0.98;;;16.40;69.60;;;;;;5031148;28;20107;-66
2022/08/29 05:04:51;;;;;;;3.65;1.40;;;16.40;69.70;;;;;;5012179;28;20515;-70
2022/08/29 05:07:19;;;;;;;0.95;0.88;;;16.50;69.80;;;;;;5031298;28;20029;-66
2022/08/29 05:09:48;;;;;;;3.92;1.95;;;16.50;69.80;;;;;;5031763;28;20052;-66
2022/08/29 05:12:14;;;;;;;1.60;0.95;;;16.50;69.80;;;;;;5031222;28;20045;-66
2022/08/29 05:14:40;;;;;;;2.92;0.93;;;16.50;69.90;;;;;;5031516;28;20087;-67
2022/08/29 05:17:06;;;;;;;2.35;0.93;;;16.50;69.90;;;;;;5013127;28;20069;-66
2022/08/29 05:19:32;;;;;;;1.17;0.98;;;16.60;69.90;;;;;;5013901;28;20110;-66
2022/08/29 05:21:58;;;;;;;1.30;1.20;;;16.60;69.90;;;;;;5012929;28;20504;-66
2022/08/29 05:24:23;;;;;;;1.27;0.90;;;16.60;70.50;;;;;;5024877;28;20035;-66
2022/08/29 05:26:50;;;;;;;2.15;1.10;;;16.60;70.00;;;;;;5013552;28;20037;-66
2022/08/29 05:29:16;;;;;;;1.60;1.00;;;16.60;69.90;;;;;;5021699;28;20116;-66
2022/08/29 05:31:42;;;;;;;1.67;0.85;;;16.70;70.10;;;;;;5031440;28;20441;-66
2022/08/29 05:34:12;;;;;;;1.38;1.20;;;16.70;70.10;;;;;;5030665;28;20440;-66
2022/08/29 05:36:38;;;;;;;1.48;0.85;;;16.70;70.20;;;;;;5035187;28;20055;-66
2022/08/29 05:39:04;;;;;;;1.63;0.80;;;16.70;70.30;;;;;;5017920;28;20077;-66
2022/08/29 05:41:29;;;;;;;4.47;1.20;;;16.70;70.40;;;;;;5014674;28;20045;-66
2022/08/29 05:43:56;;;;;;;1.70;1.23;;;16.80;70.30;;;;;;5012990;28;20493;-66
2022/08/29 05:46:22;;;;;;;2.00;0.90;;;16.80;70.30;;;;;;5013044;28;20448;-66
2022/08/29 05:48:48;;;;;;;2.90;1.02;;;16.90;70.30;;;;;;5012926;28;20120;-66
2022/08/29 05:51:17;;;;;;;4.70;1.30;;;16.90;70.20;;;;;;5028153;28;20128;-66
2022/08/29 05:53:43;;;;;;;2.47;1.40;;;16.90;70.10;;;;;;5012392;28;20030;-66
2022/08/29 05:56:09;;;;;;;2.17;1.88;;;17.00;70.10;;;;;;5030979;28;20049;-66
2022/08/29 05:58:34;;;;;;;0.95;0.77;;;17.00;69.90;;;;;;5032305;28;20563;-66
2022/08/29 06:01:00;;;;;;;2.67;1.38;;;17.10;69.70;;;;;;5030788;28;20112;-66
2022/08/29 06:03:26;;;;;;;1.98;1.25;;;17.20;69.30;;;;;;5029852;28;20026;-66
2022/08/29 06:05:51;;;;;;;1.75;1.25;;;17.20;69.00;;;;;;5030766;28;20025;-66
2022/08/29 06:08:19;;;;;;;1.05;0.95;;;17.30;68.70;;;;;;5012075;28;20025;-66
2022/08/29 06:10:45;;;;;;;0.95;0.90;;;17.30;68.50;;;;;;5031521;28;20060;-66
2022/08/29 06:13:12;;;;;;;2.15;1.13;;;17.30;68.10;;;;;;5012735;28;20129;-66
2022/08/29 06:15:42;;;;;;;2.22;1.05;;;17.20;68.10;;;;;;5028511;28;20033;-67
2022/08/29 06:18:07;;;;;;;1.52;1.13;;;17.30;68.00;;;;;;5012364;28;20063;-66
2022/08/29 06:20:35;;;;;;;2.28;1.17;;;17.30;67.90;;;;;;5017985;28;20045;-66
2022/08/29 06:23:01;;;;;;;2.03;1.40;;;17.30;67.70;;;;;;5012093;28;20064;-66
2022/08/29 06:25:27;;;;;;;1.58;1.05;;;17.30;67.30;;;;;;5012450;28;20488;-67
2022/08/29 06:27:53;;;;;;;2.90;1.40;;;17.40;67.10;;;;;;5030055;28;20477;-66
2022/08/29 06:30:19;;;;;;;1.33;0.90;;;17.40;67.40;;;;;;5030536;28;20037;-66
2022/08/29 06:32:45;;;;;;;1.27;0.80;;;17.50;66.60;;;;;;5025159;28;20025;-66
2022/08/29 06:35:11;;;;;;;1.35;0.85;;;17.60;66.40;;;;;;5012465;28;20362;-66
2022/08/29 06:37:36;;;;;;;5.47;1.13;;;17.70;66.10;;;;;;4995021;28;20086;-66
2022/08/29 06:40:03;;;;;;;1.40;0.93;;;17.80;65.90;;;;;;5012643;28;20021;-66
2022/08/29 06:42:29;;;;;;;2.35;1.13;;;17.90;65.70;;;;;;5029994;28;20113;-66
2022/08/29 06:44:54;;;;;;;1.88;1.05;;;17.90;65.40;;;;;;5012118;28;20498;-66
2022/08/29 06:47:20;;;;;;;2.03;1.20;;;18.00;65.30;;;;;;5031139;28;20037;-66
2022/08/29 06:49:46;;;;;;;0.73;0.73;;;18.10;65.20;;;;;;5032980;28;20060;-67
2022/08/29 06:52:12;;;;;;;2.00;0.68;;;18.20;65.00;;;;;;5029872;28;20064;-66
2022/08/29 06:54:38;;;;;;;1.20;0.75;;;18.20;64.90;;;;;;5011963;28;20036;-66
2022/08/29 06:57:04;;;;;;;1.83;1.33;;;18.30;64.80;;;;;;4994591;28;20034;-66
2022/08/29 06:59:30;;;;;;;1.38;0.85;;;18.30;64.50;;;;;;5029636;28;20025;-66
2022/08/29 07:01:55;;;;;;;1.35;0.90;;;18.40;64.30;;;;;;5029202;28;20071;-66
2022/08/29 07:04:21;;;;;;;3.15;0.90;;;18.50;64.30;;;;;;5009862;28;20056;-66
2022/08/29 07:06:47;;;;;;;2.10;1.10;;;18.60;64.20;;;;;;5029002;28;20112;-66
2022/08/29 07:09:13;;;;;;;1.20;1.10;;;18.70;64.00;;;;;;5029481;28;20524;-67
2022/08/29 07:11:40;;;;;;;0.88;0.70;;;18.80;63.80;;;;;;5034985;28;20472;-66
2022/08/29 07:14:06;;;;;;;0.95;0.77;;;18.90;63.70;;;;;;5037966;28;20034;-66
2022/08/29 07:16:34;;;;;;;1.65;1.08;;;19.00;63.60;;;;;;5029523;28;20034;-66
2022/08/29 07:19:01;;;;;;;0.75;0.70;;;19.00;63.50;;;;;;5010860;28;20933;-66
2022/08/29 07:21:27;;;;;;;1.30;1.20;;;19.10;63.50;;;;;;5040348;28;20362;-66
2022/08/29 07:23:55;;;;;;;1.17;0.70;;;19.20;63.20;;;;;;5047798;28;20456;-66
2022/08/29 07:26:25;;;;;;;2.85;0.95;;;19.20;62.90;;;;;;5049262;28;20082;-67
2022/08/29 07:28:53;;;;;;;11.80;2.22;;;19.30;62.90;;;;;;5048260;28;20021;-66
2022/08/29 07:31:19;;;;;;;0.80;0.65;;;19.40;62.90;;;;;;5048124;28;20358;-66
2022/08/29 07:33:45;;;;;;;1.95;1.00;;;19.40;62.70;;;;;;5029449;28;20395;-66
2022/08/29 07:36:11;;;;;;;0.60;0.60;;;19.50;62.40;;;;;;5047653;28;20038;-67
2022/08/29 07:38:38;;;;;;;2.13;1.27;;;19.60;62.30;;;;;;5029089;28;20480;-66
2022/08/29 07:41:07;;;;;;;0.90;0.73;;;19.70;62.10;;;;;;5048649;28;20031;-66
2022/08/29 07:43:34;;;;;;;0.60;0.60;;;19.80;62.10;;;;;;5030610;28;20029;-66
2022/08/29 07:46:06;;;;;;;1.60;0.98;;;19.80;61.90;;;;;;5031129;28;20043;-66
2022/08/29 07:48:32;;;;;;;0.82;0.82;;;19.90;61.40;;;;;;5048315;28;20115;-66
2022/08/29 07:50:58;;;;;;;2.05;1.10;;;19.90;61.50;;;;;;5049005;28;20105;-66
2022/08/29 07:53:23;;;;;;;0.63;0.60;;;20.00;61.60;;;;;;5048409;28;20063;-66
2022/08/29 07:55:49;;;;;;;0.90;0.90;;;20.00;61.50;;;;;;5030694;28;20376;-66
2022/08/29 07:58:15;;;;;;;0.82;0.80;;;20.00;61.40;;;;;;5049542;28;20392;-67
2022/08/29 08:00:40;;;;;;;0.52;0.50;;;20.00;61.50;;;;;;5052725;28;20100;-66
2022/08/29 08:03:07;;;;;;;3.38;1.17;;;20.10;61.60;;;;;;5034358;28;20143;-66
2022/08/29 08:05:33;;;;;;;0.85;0.63;;;20.10;61.50;;;;;;5056111;28;20029;-66
2022/08/29 08:07:59;;;;;;;1.65;0.50;;;20.10;61.30;;;;;;5041736;28;20029;-67
2022/08/29 08:10:26;;;;;;;0.70;0.40;;;20.10;61.30;;;;;;5016024;28;20025;-66
2022/08/29 08:12:52;;;;;;;2.42;0.93;;;20.10;61.60;;;;;;5052517;28;20025;-66
2022/08/29 08:15:18;;;;;;;1.42;0.88;;;20.10;61.40;;;;;;5049499;28;20391;-67
2022/08/29 08:17:43;;;;;;;0.65;0.65;;;20.10;61.50;;;;;;5052134;28;20032;-67
2022/08/29 08:20:11;;;;;;;0.70;0.65;;;20.20;61.40;;;;;;5052206;28;20116;-66
2022/08/29 08:22:37;;;;;;;1.63;1.00;;;20.40;61.40;;;;;;5032579;28;20080;-66
2022/08/29 08:25:04;;;;;;;1.40;0.60;;;20.50;61.20;;;;;;5037585;28;20064;-66
2022/08/29 08:27:30;;;;;;;2.50;0.47;;;20.70;60.90;;;;;;5030561;28;20025;-66
2022/08/29 08:29:56;;;;;;;1.50;0.80;;;20.90;60.60;;;;;;5038878;28;20079;-66
2022/08/29 08:32:22;;;;;;;2.20;1.15;;;21.00;60.00;;;;;;5032690;28;20477;-66
2022/08/29 08:34:47;;;;;;;5.00;1.20;;;21.10;59.80;;;;;;5026245;28;20026;-66
2022/08/29 08:37:13;;;;;;;2.85;0.90;;;21.10;59.40;;;;;;5028341;28;20029;-66
2022/08/29 08:39:39;;;;;;;2.63;0.70;;;21.10;58.90;;;;;;5030549;28;20128;-66
2022/08/29 08:42:19;;;;;;;0.80;0.80;;;21.20;58.70;;;;;;5037957;28;20061;-66
2022/08/29 08:45:07;;;;;;;0.47;0.47;;;21.30;58.30;;;;;;5030720;28;20033;-66
2022/08/29 08:47:39;;;;;;;0.98;0.60;;;21.30;58.00;;;;;;5033425;28;20215;-66
2022/08/29 08:50:14;;;;;;;0.55;0.52;;;21.30;57.60;;;;;;5035897;28;20025;-66
2022/08/29 08:52:58;;;;;;;0.50;0.50;;;21.30;57.40;;;;;;5035707;28;20041;-66
2022/08/29 08:55:41;;;;;;;2.72;1.30;;;21.30;57.40;;;;;;5030198;28;20041;-66
2022/08/29 08:58:29;;;;;;;0.60;0.60;;;21.30;57.40;;;;;;5033191;28;20029;-66
2022/08/29 09:01:19;;;;;;;1.13;0.50;;;21.30;57.50;;;;;;5034853;28;20036;-66
2022/08/29 09:03:56;;;;;;;2.30;0.88;;;21.40;57.40;;;;;;5035394;28;20373;-67
2022/08/29 09:06:52;;;;;;;1.17;0.70;;;21.50;57.30;;;;;;5030374;28;20080;-66
2022/08/29 09:09:52;;;;;;;1.75;0.82;;;21.60;57.10;;;;;;5030873;28;20021;-66
2022/08/29 09:12:51;;;;;;;0.55;0.40;;;21.80;56.70;;;;;;5027376;28;20392;-66
2022/08/29 09:15:22;;;;;;;2.08;0.75;;;22.10;56.10;;;;;;5034736;28;20029;-66
2022/08/29 09:17:56;;;;;;;0.88;0.60;;;22.10;55.80;;;;;;5031310;28;20476;-66
2022/08/29 09:20:27;;;;;;;1.33;0.73;;;22.10;55.90;;;;;;5030966;28;20025;-66
2022/08/29 09:23:27;;;;;;;0.32;0.32;;;22.00;56.00;;;;;;5015609;28;20533;-66
2022/08/29 09:25:53;;;;;;;2.00;0.70;;;22.00;56.30;;;;;;4993431;28;20061;-66
2022/08/29 09:28:20;;;;;;;1.38;0.82;;;22.00;56.50;;;;;;5011455;28;20077;-66
2022/08/29 09:31:17;;;;;;;1.05;0.57;;;22.00;56.50;;;;;;5011408;28;20437;-66
2022/08/29 09:34:06;;;;;;;1.60;0.80;;;22.10;56.20;;;;;;5011497;28;20025;-66
2022/08/29 09:36:51;;;;;;;0.60;0.60;;;22.10;56.20;;;;;;5009370;28;20413;-66
2022/08/29 09:39:29;;;;;;;0.60;0.60;;;22.10;56.00;;;;;;5011241;28;20033;-66
2022/08/29 09:42:15;;;;;;;0.85;0.73;;;22.10;56.20;;;;;;5011200;28;20045;-66
2022/08/29 09:44:55;;;;;;;1.10;0.80;;;22.10;56.20;;;;;;5014519;28;20037;-66
2022/08/29 09:47:30;;;;;;;1.45;0.88;;;22.10;56.20;;;;;;5010020;28;20073;-66
2022/08/29 09:50:04;;;;;;;1.85;0.93;;;22.10;56.00;;;;;;5015168;28;20419;-66
2022/08/29 09:52:30;;;;;;;1.20;0.93;;;22.10;56.00;;;;;;5010702;28;20034;-66
2022/08/29 09:54:56;;;;;;;0.60;0.60;;;22.20;55.80;;;;;;4991069;28;20532;-66
2022/08/29 09:57:26;;;;;;;2.60;0.80;;;22.20;55.80;;;;;;5010533;28;20485;-66
2022/08/29 10:00:12;;;;;;;0.75;0.40;;;22.30;55.90;;;;;;5010919;28;20068;-66
2022/08/29 10:02:50;;;;;;;1.33;0.75;;;22.40;55.70;;;;;;5010914;28;20029;-66
2022/08/29 10:05:43;;;;;;;0.65;0.60;;;22.50;55.70;;;;;;5013735;28;20026;-66
2022/08/29 10:08:29;;;;;;;;;;;22.50;55.70;;;;;;5011126;28;20339;-66
2022/08/29 10:10:58;;;;;;;4.72;0.88;;;22.50;55.90;;;;;;5015256;28;20003;-66
2022/08/29 10:13:46;;;;;;;0.77;0.77;;;22.40;56.10;;;;;;5016479;28;20137;-67
2022/08/29 10:16:38;;;;;;;1.10;0.57;;;22.50;56.30;;;;;;5008376;28;20041;-66
2022/08/29 10:19:12;;;;;;;0.68;0.63;;;22.50;56.40;;;;;;5001842;28;20097;-66
2022/08/29 10:22:00;;;;;;;0.70;0.70;;;22.40;56.70;;;;;;5032313;28;20044;-66
2022/08/29 10:25:02;;;;;;;1.92;0.88;;;22.50;56.90;;;;;;5012605;28;20044;-66
2022/08/29 10:27:51;;;;;;;0.30;0.30;;;22.50;57.00;;;;;;5023030;28;20045;-66
2022/08/29 10:30:22;;;;;;;1.23;0.50;;;22.50;57.00;;;;;;5029973;28;20475;-66
2022/08/29 10:33:09;;;;;;;0.50;0.50;;;22.50;57.00;;;;;;5030020;28;20043;-66
2022/08/29 10:35:49;;;;;;;1.45;0.60;;;22.50;57.00;;;;;;5027912;28;20029;-66
2022/08/29 10:38:35;;;;;;;0.65;0.60;;;22.70;56.90;;;;;;5028735;28;20033;-66
2022/08/29 10:41:15;;;;;;;0.73;0.50;;;22.80;56.60;;;;;;5029528;28;20047;-66
2022/08/29 10:43:49;;;;;;;0.95;0.88;;;23.00;56.20;;;;;;5030147;28;20029;-67
2022/08/29 10:46:32;;;;;;;0.88;0.70;;;23.00;55.90;;;;;;5030726;28;20143;-67
2022/08/29 10:49:20;;;;;;;1.27;0.70;;;23.10;55.80;;;;;;5031079;28;20140;-66
2022/08/29 10:52:19;;;;;;;0.65;0.65;;;23.10;55.60;;;;;;5030176;28;20041;-67
2022/08/29 10:55:00;;;;;;;0.40;0.40;;;23.10;55.80;;;;;;5011941;28;20033;-67
2022/08/29 10:57:37;;;;;;;1.42;0.82;;;23.20;55.70;;;;;;5011883;28;20040;-66
2022/08/29 11:00:14;;;;;;;1.92;0.70;;;23.40;55.40;;;;;;5029618;28;20403;-66
2022/08/29 11:03:21;;;;;;;1.05;0.80;;;23.50;55.00;;;;;;5035078;28;20051;-66
2022/08/29 11:06:00;;;;;;;0.70;0.70;;;23.60;55.00;;;;;;5031266;28;20025;-66
2022/08/29 11:08:33;;;;;;;1.40;0.90;;;23.60;55.00;;;;;;5043606;28;20481;-66
2022/08/29 11:10:58;;;;;;;0.80;0.77;;;23.70;55.00;;;;;;5009515;28;20014;-66
2022/08/29 11:13:30;;;;;;;4.03;1.08;;;24.00;54.70;;;;;;5018764;28;20086;-66
2022/08/29 11:16:24;;;;;;;1.55;0.75;;;24.20;54.30;;;;;;5011683;28;20029;-66
2022/08/29 11:18:55;;;;;;;3.45;1.35;;;24.30;54.20;;;;;;5012816;28;20037;-67
2022/08/29 11:21:33;;;;;;;0.85;0.85;;;24.10;54.00;;;;;;5029473;28;20056;-66
2022/08/29 11:24:02;;;;;;;0.70;0.70;;;23.90;54.40;;;;;;5011026;28;20471;-67
2022/08/29 11:26:46;;;;;;;0.70;0.60;;;23.80;54.60;;;;;;5030717;28;20116;-66
2022/08/29 11:29:38;;;;;;;1.42;0.80;;;23.70;54.70;;;;;;5022842;28;20492;-66
2022/08/29 11:32:18;;;;;;;1.50;0.88;;;23.60;54.90;;;;;;5021095;28;20039;-66
2022/08/29 11:35:13;;;;;;;0.40;0.40;;;23.60;55.10;;;;;;5033861;28;20456;-66
2022/08/29 11:37:58;;;;;;;3.65;0.85;;;23.70;54.90;;;;;;5043149;28;20499;-66
2022/08/29 11:40:40;;;;;;;0.63;0.63;;;23.90;54.70;;;;;;5037127;28;20782;-66
2022/08/29 11:43:09;;;;;;;;;;;24.10;54.30;;;;;;5032422;28;20542;-67
2022/08/29 11:45:42;;;;;;;2.35;0.80;;;24.30;54.20;;;;;;5032756;28;19920;-66
2022/08/29 11:48:38;;;;;;;0.77;0.70;;;24.40;53.60;;;;;;5032488;28;20049;-66
2022/08/29 11:51:28;;;;;;;1.92;1.20;;;24.50;53.50;;;;;;5044091;28;20106;-67
2022/08/29 11:53:55;;;;;;;3.67;1.30;;;24.70;53.30;;;;;;5028620;28;20038;-66
2022/08/29 11:56:27;;;;;;;0.80;0.70;;;25.10;52.60;;;;;;5031201;28;20026;-67
2022/08/29 11:58:57;;;;;;;1.08;0.85;;;25.40;52.20;;;;;;5031866;28;20876;-66
2022/08/29 12:01:34;;;;;;;0.82;0.70;;;25.80;51.70;;;;;;5037199;28;20056;-72
2022/08/29 12:04:08;;;;;;;1.75;0.77;;;25.80;50.60;;;;;;5043321;28;20148;-71
2022/08/29 12:06:57;;;;;;;0.50;0.50;;;25.60;50.90;;;;;;5031363;28;20113;-72
2022/08/29 12:09:35;;;;;;;0.93;0.40;;;25.70;50.40;;;;;;5014240;28;20033;-66
2022/08/29 12:12:04;;;;;;;0.80;0.77;;;25.80;50.20;;;;;;5033562;28;20447;-67
2022/08/29 12:14:34;;;;;;;0.70;0.63;;;25.80;49.60;;;;;;5039437;28;20158;-66
2022/08/29 12:17:02;;;;;;;1.13;0.75;;;25.70;49.70;;;;;;5046542;28;20397;-66
2022/08/29 12:19:46;;;;;;;3.15;0.75;;;25.70;49.70;;;;;;5031421;28;20027;-67
2022/08/29 12:22:44;;;;;;;0.60;0.60;;;25.90;49.50;;;;;;5030821;28;20109;-66
2022/08/29 12:25:43;;;;;;;1.95;0.70;;;26.10;49.20;;;;;;5023567;28;20128;-66
2022/08/29 12:28:22;;;;;;;0.75;0.75;;;26.10;48.80;;;;;;5030787;28;20493;-67
2022/08/29 12:31:02;;;;;;;2.80;0.70;;;25.80;48.60;;;;;;5013305;28;20026;-67
2022/08/29 12:33:35;;;;;;;0.82;0.60;;;26.00;49.50;;;;;;5031215;28;20477;-67
2022/08/29 12:36:17;;;;;;;1.20;0.70;;;26.40;48.30;;;;;;5029957;28;20065;-66
2022/08/29 12:39:25;;;;;;;0.88;0.73;;;27.00;47.00;;;;;;5030022;28;20168;-67
2022/08/29 12:42:22;;;;;;;0.73;0.50;;;27.80;46.40;;;;;;5005244;28;20030;-68
2022/08/29 12:44:59;;;;;;;0.90;0.70;;;28.10;46.30;;;;;;5030306;28;20064;-66
2022/08/29 12:47:47;;;;;;;1.08;0.50;;;27.70;45.50;;;;;;5030836;28;20041;-66
2022/08/29 12:50:26;;;;;;;1.00;0.90;;;27.30;46.10;;;;;;5030007;28;20401;-67
2022/08/29 12:53:14;;;;;;;0.60;0.60;;;27.20;46.70;;;;;;5015451;28;20021;-67
2022/08/29 12:55:46;;;;;;;0.60;0.60;;;27.50;46.40;;;;;;5030400;28;20048;-66
2022/08/29 12:58:13;;;;;;;1.80;0.60;;;28.10;45.60;;;;;;5043394;28;20051;-67
2022/08/29 13:00:40;;;;;;;0.73;0.50;;;28.50;44.80;;;;;;5030366;28;20048;-66
2022/08/29 13:03:05;;;;;;;1.00;0.70;;;28.40;44.20;;;;;;5030653;28;20053;-66
2022/08/29 13:05:33;;;;;;;0.57;0.57;;;28.10;44.40;;;;;;5035477;28;20064;-67
2022/08/29 13:08:01;;;;;;;0.60;0.60;;;27.70;44.80;;;;;;5029964;28;20029;-67
2022/08/29 13:10:28;;;;;;;0.77;0.77;;;27.30;45.20;;;;;;5031684;28;20035;-66
2022/08/29 13:13:04;;;;;;;0.70;0.70;;;27.00;45.70;;;;;;5039560;28;20029;-66